To NAV CANADA Home Page Login to a new session Search on AWWS site Disclaimer Vers la page française équivalente Tips FAQ What's new on the site To the Forecasts and Observations / NOTAM section To "File a Flight Plan" website Publications and other links Update of the User's profile FIC Telephone Numbers My Weather Data Folder Route Weather Data Regional Weather Data Local Weather Data To the Forecasts and Observations / NOTAM section
Request Generated 01/21/2021 at 01:54:16 UTC . Weather information available at that time is displayed.

METAR/TAF

MONTREAL/PIERRE-ELLIOTT-TRUDEAU INTL/QC    

METAR CYUL 210100Z 27006KT 15SM FEW037 FEW250 M13/M16 A3002 RMK SC1CI2 SC TR SLP168=
METAR CYUL 210000Z 26010KT 15SM FEW035 FEW240 M11/M16 A3002 RMK SC1CI1 SC TR CI TR SLP171=
METAR CYUL 202300Z 26013KT 15SM FEW030 FEW240 M10/M15 A3002 RMK SC1CI1 SC TR CI TR SLP170=

TAF CYUL 202341Z 2100/2124 28012KT P6SM FEW030
BECMG 2102/2104 14006KT
FM210600 12005KT P6SM SCT020 BKN090 TEMPO 2106/2111 BKN020 OVC090
FM211100 12009KT 6SM -SN OVC030
FM211300 12010KT 2SM -SN BKN009 OVC020
FM211600 12010KT 21/2SM -SN BKN008 OVC012
RMK NXT FCST BY 210300Z=
Your time UTC time
Weather data provided by Environment Canada and NAV CANADA